4OH4 weather

Millertime Airport
Orient, Ohio, United States

Public forecast

Using degrees Fahrenheit for public forecast. Weather courtesy of forecast.io.

Closest aviation weather report (METAR) to Millertime Airport

Closest report is Bolton Field, 6.6 nm (12.2 km) N. Retrieved 2019/12/08 10:35 UTC (0 seconds ago):

KTZR 081035Z AUTO 00000KT 10SM CLR M05/M07 A3021 RMK AO2 T10481072 TSNO

Closest aviation forecast (TAF) to Millertime Airport

Closest forecast is Rickenbacker International Airport, 8.8 nm (16.3 km) E. Retrieved 2019/12/08 06:57 UTC (4 hours ago):

TAF KLCK 080541Z 0806/0906 13005KT P6SM BKN250 FM081500 18012KT P6SM BKN050 FM090000 17008KT P6SM VCSH OVC035